createdAt,value
2024-05-09T00:00:38.723Z,642.00
2024-05-09T00:01:32.806Z,642.00
2024-05-09T00:02:31.859Z,642.00
2024-05-09T00:03:31.892Z,643.00
2024-05-09T00:04:31.844Z,644.00
2024-05-09T00:05:31.922Z,643.00
2024-05-09T00:06:31.826Z,639.00
2024-05-09T00:07:31.804Z,638.00
2024-05-09T00:08:31.990Z,643.00
2024-05-09T00:09:31.814Z,641.00
2024-05-09T00:10:36.166Z,637.00
2024-05-09T00:11:32.884Z,637.00
2024-05-09T00:12:31.851Z,638.00
2024-05-09T00:13:31.805Z,637.00
2024-05-09T00:14:31.954Z,639.00
2024-05-09T00:15:31.826Z,637.00
2024-05-09T00:16:31.831Z,636.00
2024-05-09T00:17:32.096Z,638.00
2024-05-09T00:18:31.938Z,634.00
2024-05-09T00:19:32.195Z,631.00
2024-05-09T00:20:38.138Z,634.00
2024-05-09T00:21:32.858Z,635.00
2024-05-09T00:22:31.838Z,635.00
2024-05-09T00:23:32.005Z,635.00
2024-05-09T00:24:31.834Z,635.00
2024-05-09T00:25:31.843Z,637.00
2024-05-09T00:26:31.926Z,631.00
2024-05-09T00:27:31.855Z,637.00
2024-05-09T00:28:31.838Z,629.00
2024-05-09T00:29:31.887Z,632.00
2024-05-09T00:30:35.333Z,631.00
2024-05-09T00:31:32.857Z,631.00
2024-05-09T00:32:32.020Z,632.00
2024-05-09T00:33:31.991Z,632.00
2024-05-09T00:34:31.958Z,635.00
2024-05-09T00:35:31.959Z,635.00
2024-05-09T00:36:31.868Z,631.00
2024-05-09T00:37:31.861Z,631.00
2024-05-09T00:38:31.993Z,632.00
2024-05-09T00:39:31.866Z,630.00
2024-05-09T00:40:38.706Z,628.00
2024-05-09T00:41:32.887Z,628.00
2024-05-09T00:42:31.868Z,628.00
2024-05-09T00:43:31.871Z,624.00
2024-05-09T00:44:31.949Z,625.00
2024-05-09T00:45:31.845Z,627.00
2024-05-09T00:46:31.855Z,630.00
2024-05-09T00:47:32.036Z,627.00
2024-05-09T00:48:32.141Z,626.00
2024-05-09T00:49:32.090Z,627.00
2024-05-09T00:50:36.419Z,622.00
2024-05-09T00:51:32.881Z,622.00
2024-05-09T00:52:31.876Z,622.00
2024-05-09T00:53:31.996Z,624.00
2024-05-09T00:54:31.886Z,625.00
2024-05-09T00:55:31.891Z,627.00
2024-05-09T00:56:31.934Z,624.00
2024-05-09T00:57:31.885Z,619.00
2024-05-09T00:58:31.898Z,619.00
2024-05-09T00:59:31.942Z,617.00
2024-05-09T01:00:38.414Z,618.00
2024-05-09T01:01:33.012Z,618.00
2024-05-09T01:02:32.003Z,618.00
2024-05-09T01:03:31.995Z,619.00
2024-05-09T01:04:31.991Z,618.00
2024-05-09T01:05:32.001Z,617.00
2024-05-09T01:06:31.905Z,619.00
2024-05-09T01:07:31.905Z,617.00
2024-05-09T01:08:31.998Z,615.00
2024-05-09T01:09:31.884Z,616.00
2024-05-09T01:10:34.852Z,620.00
2024-05-09T01:11:31.950Z,620.00
2024-05-09T01:12:32.036Z,617.00
2024-05-09T01:13:31.919Z,616.00
2024-05-09T01:14:31.965Z,613.00
2024-05-09T01:15:31.924Z,620.00
2024-05-09T01:16:31.899Z,614.00
2024-05-09T01:17:32.086Z,614.00
2024-05-09T01:18:32.054Z,614.00
2024-05-09T01:19:32.025Z,614.00
2024-05-09T01:20:40.281Z,610.00
2024-05-09T01:21:32.924Z,610.00
2024-05-09T01:22:31.923Z,611.00
2024-05-09T01:23:31.978Z,612.00
2024-05-09T01:24:31.910Z,614.00
2024-05-09T01:25:31.896Z,611.00
2024-05-09T01:26:32.017Z,616.00
2024-05-09T01:27:31.922Z,612.00
2024-05-09T01:28:31.920Z,613.00
2024-05-09T01:29:31.990Z,610.00
2024-05-09T01:30:35.394Z,608.00
2024-05-09T01:31:32.970Z,608.00
2024-05-09T01:32:32.077Z,609.00
2024-05-09T01:33:32.167Z,609.00
2024-05-09T01:34:31.943Z,610.00
2024-05-09T01:35:32.049Z,607.00
2024-05-09T01:36:31.955Z,609.00
2024-05-09T01:37:31.936Z,613.00
2024-05-09T01:38:32.011Z,617.00
2024-05-09T01:39:31.970Z,614.00
2024-05-09T01:40:37.627Z,612.00
2024-05-09T01:41:32.975Z,613.00
2024-05-09T01:42:31.963Z,613.00
2024-05-09T01:43:31.957Z,614.00
2024-05-09T01:44:32.032Z,615.00
2024-05-09T01:45:31.963Z,618.00
2024-05-09T01:46:31.958Z,611.00
2024-05-09T01:47:32.169Z,614.00
2024-05-09T01:48:32.002Z,612.00
2024-05-09T01:49:32.175Z,613.00
2024-05-09T01:51:31.977Z,618.00
2024-05-09T01:52:31.983Z,613.00
2024-05-09T01:53:32.082Z,613.00
2024-05-09T01:54:31.965Z,613.00
2024-05-09T01:55:31.974Z,612.00
2024-05-09T01:56:32.089Z,612.00
2024-05-09T01:57:31.970Z,611.00
2024-05-09T01:58:32.003Z,611.00
2024-05-09T01:59:32.085Z,608.00
2024-05-09T02:00:38.854Z,610.00
2024-05-09T02:01:55.437Z,611.00
2024-05-09T02:02:33.127Z,611.00
2024-05-09T02:03:32.098Z,612.00
2024-05-09T02:04:32.067Z,615.00
2024-05-09T02:05:32.175Z,617.00
2024-05-09T02:06:32.027Z,614.00
2024-05-09T02:07:32.022Z,620.00
2024-05-09T02:08:32.178Z,616.00
2024-05-09T02:09:32.016Z,616.00
2024-05-09T02:10:33.223Z,616.00
2024-05-09T02:11:32.108Z,618.00
2024-05-09T02:12:32.111Z,617.00
2024-05-09T02:13:32.019Z,613.00
2024-05-09T02:14:32.031Z,613.00
2024-05-09T02:15:32.024Z,615.00
2024-05-09T02:16:32.011Z,610.00
2024-05-09T02:17:32.084Z,613.00
2024-05-09T02:18:32.091Z,607.00
2024-05-09T02:19:32.143Z,611.00
2024-05-09T02:20:36.240Z,614.00
2024-05-09T02:21:33.008Z,614.00
2024-05-09T02:22:32.037Z,613.00
2024-05-09T02:23:32.108Z,614.00
2024-05-09T02:24:32.024Z,610.00
2024-05-09T02:25:32.206Z,614.00
2024-05-09T02:26:32.094Z,607.00
2024-05-09T02:27:32.050Z,606.00
2024-05-09T02:28:32.043Z,611.00
2024-05-09T02:29:32.157Z,609.00
2024-05-09T02:30:39.089Z,608.00
2024-05-09T02:31:33.059Z,608.00
2024-05-09T02:32:32.341Z,608.00
2024-05-09T02:33:32.225Z,609.00
2024-05-09T02:34:32.099Z,608.00
2024-05-09T02:35:32.115Z,608.00
2024-05-09T02:36:32.084Z,609.00
2024-05-09T02:37:32.098Z,607.00
2024-05-09T02:38:32.125Z,606.00
2024-05-09T02:39:32.072Z,603.00
2024-05-09T02:40:37.233Z,606.00
2024-05-09T02:41:33.121Z,606.00
2024-05-09T02:42:32.050Z,606.00
2024-05-09T02:43:32.091Z,607.00
2024-05-09T02:44:32.120Z,608.00
2024-05-09T02:45:32.080Z,608.00
2024-05-09T02:46:32.051Z,606.00
2024-05-09T02:47:32.205Z,606.00
2024-05-09T02:48:32.203Z,608.00
2024-05-09T02:49:32.158Z,606.00
2024-05-09T02:50:37.907Z,602.00
2024-05-09T02:51:33.092Z,603.00
2024-05-09T02:52:32.105Z,603.00
2024-05-09T02:53:32.158Z,604.00
2024-05-09T02:54:32.083Z,604.00
2024-05-09T02:55:32.102Z,607.00
2024-05-09T02:56:32.106Z,607.00
2024-05-09T02:57:32.095Z,602.00
2024-05-09T02:58:32.061Z,604.00
2024-05-09T02:59:32.152Z,604.00
2024-05-09T03:00:38.410Z,604.00
2024-05-09T03:01:33.159Z,605.00
2024-05-09T03:02:32.212Z,605.00
2024-05-09T03:03:32.247Z,606.00
2024-05-09T03:04:32.283Z,604.00
2024-05-09T03:05:32.255Z,605.00
2024-05-09T03:06:32.107Z,602.00
2024-05-09T03:07:32.082Z,605.00
2024-05-09T03:08:32.316Z,603.00
2024-05-09T03:09:32.091Z,604.00
2024-05-09T03:10:35.795Z,603.00
2024-05-09T03:11:33.249Z,603.00
2024-05-09T03:12:32.138Z,603.00
2024-05-09T03:13:32.134Z,604.00
2024-05-09T03:14:32.195Z,605.00
2024-05-09T03:15:32.118Z,608.00
2024-05-09T03:16:32.119Z,604.00
2024-05-09T03:17:32.356Z,605.00
2024-05-09T03:18:32.244Z,606.00
2024-05-09T03:19:32.179Z,606.00
2024-05-09T03:20:34.737Z,604.00
2024-05-09T03:21:32.144Z,605.00
2024-05-09T03:22:32.123Z,605.00
2024-05-09T03:23:32.180Z,603.00
2024-05-09T03:24:32.108Z,605.00
2024-05-09T03:25:32.149Z,607.00
2024-05-09T03:26:32.160Z,606.00
2024-05-09T03:27:32.131Z,606.00
2024-05-09T03:28:32.117Z,607.00
2024-05-09T03:29:32.185Z,606.00
2024-05-09T03:30:39.941Z,609.00
2024-05-09T03:31:33.157Z,610.00
2024-05-09T03:32:32.224Z,610.00
2024-05-09T03:33:32.386Z,610.00
2024-05-09T03:34:32.212Z,609.00
2024-05-09T03:35:32.237Z,611.00
2024-05-09T03:36:32.170Z,612.00
2024-05-09T03:37:32.149Z,608.00
2024-05-09T03:38:32.217Z,610.00
2024-05-09T03:39:32.148Z,611.00
2024-05-09T03:40:32.170Z,610.00
2024-05-09T03:41:32.387Z,606.00
2024-05-09T03:42:32.151Z,607.00
2024-05-09T03:43:32.147Z,605.00
2024-05-09T03:44:32.235Z,608.00
2024-05-09T03:45:32.235Z,608.00
2024-05-09T03:46:32.262Z,605.00
2024-05-09T03:47:32.495Z,610.00
2024-05-09T03:48:32.479Z,612.00
2024-05-09T03:49:32.562Z,604.00
2024-05-09T03:50:35.670Z,609.00
2024-05-09T03:51:32.443Z,609.00
2024-05-09T03:52:32.444Z,609.00
2024-05-09T03:53:32.558Z,607.00
2024-05-09T03:54:32.445Z,607.00
2024-05-09T03:55:32.532Z,608.00
2024-05-09T03:56:32.500Z,606.00
2024-05-09T03:57:32.465Z,610.00
2024-05-09T03:58:32.433Z,606.00
2024-05-09T03:59:32.542Z,601.00
2024-05-09T04:00:37.942Z,605.00
2024-05-09T04:01:33.520Z,605.00
2024-05-09T04:02:32.522Z,605.00
2024-05-09T04:03:32.723Z,606.00
2024-05-09T04:04:32.606Z,605.00
2024-05-09T04:05:32.516Z,612.00
2024-05-09T04:06:32.583Z,607.00
2024-05-09T04:07:32.463Z,604.00
2024-05-09T04:08:32.506Z,604.00
2024-05-09T04:09:32.478Z,606.00
2024-05-09T04:10:34.141Z,605.00
2024-05-09T04:11:32.782Z,603.00
2024-05-09T04:12:32.796Z,601.00
2024-05-09T04:13:32.764Z,601.00
2024-05-09T04:14:32.959Z,601.00
2024-05-09T04:15:32.921Z,605.00
2024-05-09T04:16:40.082Z,600.00
2024-05-09T04:17:40.272Z,600.00
2024-05-09T04:18:40.166Z,600.00
2024-05-09T04:19:40.194Z,600.00
2024-05-09T04:20:41.284Z,600.00
2024-05-09T04:21:40.079Z,600.00
2024-05-09T04:22:40.096Z,602.00
2024-05-09T04:23:40.140Z,602.00
2024-05-09T04:24:40.089Z,600.00
2024-05-09T04:25:40.086Z,607.00
2024-05-09T04:26:40.152Z,601.00
2024-05-09T04:27:40.121Z,601.00
2024-05-09T04:28:40.153Z,604.00
2024-05-09T04:29:40.159Z,608.00
2024-05-09T04:30:41.584Z,605.00
2024-05-09T04:31:49.453Z,600.00
2024-05-09T04:32:49.530Z,600.00
2024-05-09T04:33:49.572Z,600.00
2024-05-09T04:34:49.488Z,600.00
2024-05-09T04:35:49.419Z,600.00
2024-05-09T04:36:49.437Z,600.00
2024-05-09T04:37:49.484Z,603.00
2024-05-09T04:38:49.428Z,600.00
2024-05-09T04:39:49.441Z,602.00
2024-05-09T04:40:49.491Z,600.00
2024-05-09T04:41:49.438Z,600.00
2024-05-09T04:42:49.446Z,601.00
2024-05-09T04:43:49.564Z,604.00
2024-05-09T04:44:49.442Z,605.00
2024-05-09T04:45:49.446Z,605.00
2024-05-09T04:46:49.455Z,605.00
2024-05-09T04:47:49.637Z,604.00
2024-05-09T04:48:49.534Z,606.00
2024-05-09T04:49:49.472Z,606.00
2024-05-09T04:50:49.479Z,606.00
2024-05-09T04:51:49.472Z,603.00
2024-05-09T04:52:49.600Z,604.00
2024-05-09T04:53:49.497Z,604.00
2024-05-09T04:54:49.451Z,606.00
2024-05-09T04:55:49.552Z,606.00
2024-05-09T04:56:49.456Z,602.00
2024-05-09T04:57:49.488Z,606.00
2024-05-09T04:58:49.526Z,602.00
2024-05-09T04:59:49.468Z,604.00
2024-05-09T05:00:49.533Z,604.00
2024-05-09T05:01:49.610Z,605.00
2024-05-09T05:02:49.588Z,603.00
2024-05-09T05:03:49.792Z,605.00
2024-05-09T05:04:49.703Z,603.00
2024-05-09T05:05:49.523Z,602.00
2024-05-09T05:06:49.483Z,604.00
2024-05-09T05:07:49.509Z,603.00
2024-05-09T05:08:49.504Z,601.00
2024-05-09T05:09:49.541Z,602.00
2024-05-09T05:10:49.824Z,602.00
2024-05-09T05:11:49.830Z,605.00
2024-05-09T05:12:49.715Z,609.00
2024-05-09T05:13:49.771Z,605.00
2024-05-09T05:14:49.811Z,606.00
2024-05-09T05:15:49.837Z,606.00
2024-05-09T05:16:49.912Z,607.00
2024-05-09T05:17:50.166Z,602.00
2024-05-09T05:18:50.014Z,605.00
2024-05-09T05:19:50.177Z,606.00
2024-05-09T05:20:50.125Z,602.00
2024-05-09T05:21:50.090Z,606.00
2024-05-09T05:22:50.157Z,609.00
2024-05-09T05:23:50.198Z,601.00
2024-05-09T05:24:50.237Z,609.00
2024-05-09T05:25:50.337Z,606.00
2024-05-09T05:26:50.327Z,607.00
2024-05-09T05:27:50.366Z,605.00
2024-05-09T05:28:50.429Z,610.00
2024-05-09T05:29:50.489Z,613.00
2024-05-09T05:30:50.629Z,606.00
2024-05-09T05:31:50.671Z,605.00
2024-05-09T05:32:50.781Z,609.00
2024-05-09T05:33:50.675Z,604.00
2024-05-09T05:34:50.745Z,608.00
2024-05-09T05:35:50.698Z,608.00
2024-05-09T05:36:50.726Z,605.00
2024-05-09T05:37:50.859Z,606.00
2024-05-09T05:38:50.932Z,605.00
2024-05-09T05:39:50.877Z,603.00
2024-05-09T05:40:50.935Z,603.00
2024-05-09T05:41:50.965Z,604.00
2024-05-09T05:42:51.008Z,606.00
2024-05-09T05:43:51.111Z,604.00
2024-05-09T05:44:51.085Z,606.00
2024-05-09T05:45:51.131Z,604.00
2024-05-09T05:46:51.193Z,601.00
2024-05-09T05:47:51.385Z,606.00
2024-05-09T05:48:51.295Z,604.00
2024-05-09T05:49:51.287Z,603.00
2024-05-09T05:50:51.438Z,600.00
2024-05-09T05:51:51.374Z,601.00
2024-05-09T05:52:51.410Z,601.00
2024-05-09T05:53:51.480Z,607.00
2024-05-09T05:54:51.434Z,609.00
2024-05-09T05:55:51.511Z,603.00
2024-05-09T05:56:51.488Z,604.00
2024-05-09T05:57:51.504Z,610.00
2024-05-09T05:58:51.560Z,605.00
2024-05-09T05:59:51.555Z,600.00
2024-05-09T06:00:51.583Z,601.00
2024-05-09T06:01:51.705Z,602.00
2024-05-09T06:02:51.751Z,602.00
2024-05-09T06:03:51.830Z,600.00
2024-05-09T06:04:51.715Z,602.00
2024-05-09T06:05:51.662Z,600.00
2024-05-09T06:06:51.619Z,603.00
2024-05-09T06:07:51.668Z,600.00
2024-05-09T06:08:51.762Z,604.00
2024-05-09T06:09:51.720Z,606.00
2024-05-09T06:10:51.868Z,607.00
2024-05-09T06:11:51.967Z,605.00
2024-05-09T06:12:51.805Z,607.00
2024-05-09T06:13:51.944Z,608.00
2024-05-09T06:14:51.882Z,609.00
2024-05-09T06:15:51.987Z,607.00
2024-05-09T06:16:52.950Z,615.00
2024-05-09T06:17:52.123Z,615.00
2024-05-09T06:18:52.287Z,615.00
2024-05-09T06:19:52.196Z,616.00
2024-05-09T06:20:52.207Z,621.00
2024-05-09T06:21:52.161Z,621.00
2024-05-09T06:22:52.247Z,613.00
2024-05-09T06:23:52.295Z,619.00
2024-05-09T06:24:52.334Z,614.00
2024-05-09T06:25:52.460Z,617.00
2024-05-09T06:26:52.441Z,620.00
2024-05-09T06:27:52.513Z,621.00
2024-05-09T06:28:52.603Z,619.00
2024-05-09T06:29:52.587Z,619.00
2024-05-09T06:30:52.640Z,620.00
2024-05-09T06:31:52.801Z,622.00
2024-05-09T06:32:52.857Z,620.00
2024-05-09T06:33:52.979Z,623.00
2024-05-09T06:34:52.969Z,623.00
2024-05-09T06:35:53.052Z,620.00
2024-05-09T06:36:53.070Z,618.00
2024-05-09T06:37:53.247Z,622.00
2024-05-09T06:38:53.204Z,618.00
2024-05-09T06:39:53.286Z,616.00
2024-05-09T06:40:53.400Z,617.00
2024-05-09T06:41:53.429Z,620.00
2024-05-09T06:42:53.539Z,621.00
2024-05-09T06:43:53.619Z,618.00
2024-05-09T06:44:53.591Z,615.00
2024-05-09T06:45:53.691Z,618.00
2024-05-09T06:46:55.783Z,621.00
2024-05-09T06:47:53.929Z,621.00
2024-05-09T06:48:54.187Z,622.00
2024-05-09T06:49:53.776Z,621.00
2024-05-09T06:50:53.757Z,621.00
2024-05-09T06:51:53.746Z,617.00
2024-05-09T06:52:53.815Z,616.00
2024-05-09T06:53:53.770Z,610.00
2024-05-09T06:54:53.758Z,611.00
2024-05-09T06:55:53.878Z,612.00
2024-05-09T06:56:53.771Z,613.00
2024-05-09T06:57:53.776Z,613.00
2024-05-09T06:58:53.815Z,611.00
2024-05-09T06:59:53.767Z,616.00
2024-05-09T07:00:53.847Z,618.00
2024-05-09T07:01:53.812Z,614.00
2024-05-09T07:02:53.896Z,615.00
2024-05-09T07:03:53.838Z,617.00
2024-05-09T07:04:54.047Z,615.00
2024-05-09T07:05:53.855Z,621.00
2024-05-09T07:06:53.780Z,622.00
2024-05-09T07:07:53.795Z,627.00
2024-05-09T07:08:53.911Z,625.00
2024-05-09T07:09:53.802Z,625.00
2024-05-09T07:10:53.928Z,626.00
2024-05-09T07:11:53.906Z,626.00
2024-05-09T07:12:53.830Z,627.00
2024-05-09T07:13:53.901Z,625.00
2024-05-09T07:14:53.845Z,625.00
2024-05-09T07:15:53.919Z,632.00
2024-05-09T07:16:54.086Z,636.00
2024-05-09T07:17:54.211Z,635.00
2024-05-09T07:18:54.196Z,634.00
2024-05-09T07:19:54.141Z,636.00
2024-05-09T07:20:54.228Z,637.00
2024-05-09T07:21:54.248Z,640.00
2024-05-09T07:22:54.321Z,635.00
2024-05-09T07:23:54.443Z,635.00
2024-05-09T07:24:54.440Z,636.00
2024-05-09T07:25:54.605Z,634.00
2024-05-09T07:26:54.548Z,638.00
2024-05-09T07:27:54.667Z,642.00
2024-05-09T07:28:54.690Z,639.00
2024-05-09T07:29:54.725Z,635.00
2024-05-09T07:30:54.789Z,640.00
2024-05-09T07:31:54.909Z,635.00
2024-05-09T07:32:55.067Z,639.00
2024-05-09T07:33:55.078Z,642.00
2024-05-09T07:34:55.046Z,646.00
2024-05-09T07:35:55.086Z,646.00
2024-05-09T07:36:55.124Z,643.00
2024-05-09T07:37:55.251Z,643.00
2024-05-09T07:38:55.245Z,647.00
2024-05-09T07:39:55.309Z,645.00
2024-05-09T07:40:55.426Z,644.00
2024-05-09T07:41:55.405Z,648.00
2024-05-09T07:42:55.474Z,647.00
2024-05-09T07:43:55.568Z,645.00
2024-05-09T07:44:58.637Z,649.00
2024-05-09T07:45:59.167Z,649.00
2024-05-09T07:49:44.066Z,649.00
2024-05-09T07:50:34.738Z,649.00
2024-05-09T07:52:38.861Z,649.00
2024-05-09T07:53:21.853Z,650.00
2024-05-09T07:53:58.418Z,650.00
2024-05-09T07:54:56.824Z,650.00
2024-05-09T07:55:56.203Z,653.00
2024-05-09T07:56:55.724Z,658.00
2024-05-09T07:57:55.665Z,661.00
2024-05-09T07:58:55.850Z,675.00
2024-05-09T07:59:55.621Z,667.00
2024-05-09T08:00:55.702Z,665.00
2024-05-09T08:01:55.738Z,662.00
2024-05-09T08:02:55.665Z,661.00
2024-05-09T08:03:55.775Z,660.00
2024-05-09T08:04:55.714Z,657.00
2024-05-09T08:05:55.620Z,657.00
2024-05-09T08:06:55.733Z,656.00
2024-05-09T08:07:55.744Z,654.00
2024-05-09T08:08:56.028Z,651.00
2024-05-09T08:09:55.873Z,652.00
2024-05-09T08:10:55.880Z,652.00
2024-05-09T08:11:55.934Z,648.00
2024-05-09T08:12:55.957Z,646.00
2024-05-09T08:13:55.937Z,642.00
2024-05-09T08:14:55.954Z,647.00
2024-05-09T08:15:56.096Z,640.00
2024-05-09T08:16:56.140Z,645.00
2024-05-09T08:17:56.596Z,647.00
2024-05-09T08:18:56.229Z,642.00
2024-05-09T08:19:56.147Z,641.00
2024-05-09T08:20:56.181Z,645.00
2024-05-09T08:21:56.265Z,640.00
2024-05-09T08:22:56.306Z,644.00
2024-05-09T08:23:56.318Z,642.00
2024-05-09T08:24:56.352Z,643.00
2024-05-09T08:25:56.385Z,639.00
2024-05-09T08:26:56.399Z,639.00
2024-05-09T08:27:56.488Z,647.00
2024-05-09T08:28:56.502Z,648.00
2024-05-09T08:29:56.593Z,643.00
2024-05-09T08:30:56.629Z,642.00
2024-05-09T08:31:56.732Z,640.00
2024-05-09T08:32:56.710Z,639.00
2024-05-09T08:33:56.850Z,638.00
2024-05-09T08:34:56.855Z,638.00
2024-05-09T08:35:56.697Z,635.00
2024-05-09T08:37:01.584Z,637.00
2024-05-09T08:37:57.833Z,637.00
2024-05-09T08:38:56.758Z,638.00
2024-05-09T08:39:56.811Z,639.00
2024-05-09T08:40:56.834Z,639.00
2024-05-09T08:41:56.765Z,643.00
2024-05-09T08:42:56.823Z,642.00
2024-05-09T08:43:56.749Z,643.00
2024-05-09T08:44:56.737Z,645.00
2024-05-09T08:45:56.863Z,646.00
2024-05-09T08:46:56.747Z,643.00
2024-05-09T08:47:56.865Z,646.00
2024-05-09T08:48:56.943Z,647.00
2024-05-09T08:49:56.797Z,642.00
2024-05-09T08:50:56.787Z,644.00
2024-05-09T08:51:56.801Z,644.00
2024-05-09T08:52:56.762Z,643.00
2024-05-09T08:53:56.775Z,641.00
2024-05-09T08:54:56.777Z,644.00
2024-05-09T08:55:56.778Z,646.00
2024-05-09T08:56:56.793Z,642.00
2024-05-09T08:57:56.852Z,643.00
2024-05-09T08:58:56.782Z,643.00
2024-05-09T08:59:56.760Z,643.00
2024-05-09T09:00:56.905Z,645.00
2024-05-09T09:01:56.823Z,644.00
2024-05-09T09:02:56.815Z,647.00
2024-05-09T09:03:56.878Z,647.00
2024-05-09T09:04:56.872Z,650.00
2024-05-09T09:05:56.805Z,648.00
2024-05-09T09:06:58.300Z,646.00
2024-05-09T09:07:56.860Z,643.00
2024-05-09T09:08:56.850Z,644.00
2024-05-09T09:09:56.933Z,641.00
2024-05-09T09:10:56.907Z,642.00
2024-05-09T09:11:56.951Z,641.00
2024-05-09T09:12:56.948Z,640.00
2024-05-09T09:13:56.951Z,639.00
2024-05-09T09:14:56.979Z,639.00
2024-05-09T09:15:57.027Z,644.00
2024-05-09T09:16:56.997Z,639.00
2024-05-09T09:17:57.086Z,642.00
2024-05-09T09:18:57.184Z,645.00
2024-05-09T09:19:57.231Z,640.00
2024-05-09T09:20:57.034Z,636.00
2024-05-09T09:21:57.143Z,636.00
2024-05-09T09:22:57.089Z,633.00
2024-05-09T09:23:57.141Z,632.00
2024-05-09T09:24:57.154Z,630.00
2024-05-09T09:25:57.186Z,627.00
2024-05-09T09:26:57.172Z,620.00
2024-05-09T09:27:57.253Z,621.00
2024-05-09T09:28:57.224Z,622.00
2024-05-09T09:29:57.273Z,616.00
2024-05-09T09:30:57.312Z,615.00
2024-05-09T09:31:57.315Z,616.00
2024-05-09T09:32:57.427Z,617.00
2024-05-09T09:33:57.773Z,619.00
2024-05-09T09:34:57.436Z,614.00
2024-05-09T09:35:57.482Z,612.00
2024-05-09T09:36:57.548Z,615.00
2024-05-09T09:37:57.516Z,609.00
2024-05-09T09:38:57.544Z,608.00
2024-05-09T09:39:57.661Z,616.00
2024-05-09T09:40:57.653Z,608.00
2024-05-09T09:41:57.643Z,608.00
2024-05-09T09:42:57.755Z,608.00
2024-05-09T09:43:57.684Z,607.00
2024-05-09T09:45:04.354Z,607.00
2024-05-09T09:45:58.775Z,607.00
2024-05-09T09:46:57.741Z,607.00
2024-05-09T09:47:57.772Z,603.00
2024-05-09T09:48:57.869Z,600.00
2024-05-09T09:49:57.752Z,603.00
2024-05-09T09:50:57.766Z,601.00
2024-05-09T09:51:57.804Z,602.00
2024-05-09T09:52:57.734Z,604.00
2024-05-09T09:53:57.755Z,602.00
2024-05-09T09:54:57.795Z,602.00
2024-05-09T09:55:57.770Z,603.00
2024-05-09T09:56:57.825Z,606.00
2024-05-09T09:57:57.823Z,609.00
2024-05-09T09:58:57.774Z,605.00
2024-05-09T09:59:57.768Z,607.00
2024-05-09T10:00:57.857Z,607.00
2024-05-09T10:01:58.367Z,606.00
2024-05-09T10:02:57.863Z,604.00
2024-05-09T10:03:58.037Z,608.00
2024-05-09T10:04:58.043Z,607.00
2024-05-09T10:05:58.040Z,608.00
2024-05-09T10:06:58.047Z,608.00
2024-05-09T10:07:58.195Z,608.00
2024-05-09T10:08:58.087Z,608.00
2024-05-09T10:09:58.164Z,611.00
2024-05-09T10:10:58.251Z,607.00
2024-05-09T10:12:00.433Z,609.00
2024-05-09T10:12:58.524Z,606.00
2024-05-09T10:13:58.467Z,601.00
2024-05-09T10:14:58.522Z,606.00
2024-05-09T10:15:58.574Z,606.00
2024-05-09T10:16:58.629Z,601.00
2024-05-09T10:17:58.768Z,610.00
2024-05-09T10:18:58.894Z,610.00
2024-05-09T10:19:58.809Z,608.00
2024-05-09T10:20:58.771Z,605.00
2024-05-09T10:21:58.796Z,607.00
2024-05-09T10:22:58.857Z,605.00
2024-05-09T10:23:58.909Z,607.00
2024-05-09T10:24:59.189Z,608.00
2024-05-09T10:25:59.017Z,605.00
2024-05-09T10:26:59.006Z,604.00
2024-05-09T10:27:59.092Z,606.00
2024-05-09T10:28:59.102Z,608.00
2024-05-09T10:29:59.133Z,609.00
2024-05-09T10:30:59.180Z,609.00
2024-05-09T10:31:59.207Z,604.00
2024-05-09T10:32:59.342Z,603.00
2024-05-09T10:33:59.508Z,605.00
2024-05-09T10:34:59.380Z,604.00
2024-05-09T10:35:59.392Z,601.00
2024-05-09T10:37:00.393Z,605.00
2024-05-09T10:37:59.493Z,608.00
2024-05-09T10:38:59.493Z,604.00
2024-05-09T10:39:59.564Z,604.00
2024-05-09T10:40:59.588Z,604.00
2024-05-09T10:41:59.607Z,603.00
2024-05-09T10:43:01.913Z,608.00
2024-05-09T10:43:59.688Z,612.00
2024-05-09T10:44:59.680Z,608.00
2024-05-09T10:45:59.749Z,600.00
2024-05-09T10:46:59.702Z,611.00
2024-05-09T10:47:59.805Z,607.00
2024-05-09T10:49:01.689Z,609.00
2024-05-09T10:49:59.746Z,609.00
2024-05-09T10:50:59.713Z,606.00
2024-05-09T10:51:59.769Z,601.00
2024-05-09T10:52:59.696Z,602.00
2024-05-09T10:53:59.686Z,597.00
2024-05-09T10:55:01.047Z,606.00
2024-05-09T10:55:59.709Z,609.00
2024-05-09T10:56:59.693Z,603.00
2024-05-09T10:57:59.769Z,601.00
2024-05-09T10:58:59.679Z,603.00
2024-05-09T10:59:59.675Z,601.00
2024-05-09T11:01:02.373Z,609.00
2024-05-09T11:01:59.761Z,606.00
2024-05-09T11:02:59.720Z,600.00
2024-05-09T11:03:59.918Z,604.00
2024-05-09T11:04:59.747Z,601.00
2024-05-09T11:05:59.692Z,605.00
2024-05-09T11:07:01.564Z,605.00
2024-05-09T11:07:59.723Z,605.00
2024-05-09T11:08:59.695Z,603.00
2024-05-09T11:09:59.751Z,601.00
2024-05-09T11:10:59.968Z,598.00
2024-05-09T11:11:59.777Z,598.00
2024-05-09T11:12:59.806Z,601.00
2024-05-09T11:13:59.729Z,604.00
2024-05-09T11:14:59.704Z,603.00
2024-05-09T11:15:59.753Z,600.00
2024-05-09T11:16:59.729Z,600.00
2024-05-09T11:17:59.752Z,604.00
2024-05-09T11:18:59.970Z,600.00
2024-05-09T11:19:59.753Z,602.00
2024-05-09T11:20:59.722Z,606.00
2024-05-09T11:21:59.794Z,604.00
2024-05-09T11:22:59.817Z,601.00
2024-05-09T11:23:59.768Z,600.00
2024-05-09T11:24:59.817Z,602.00
2024-05-09T11:25:59.736Z,600.00
2024-05-09T11:26:59.736Z,604.00
2024-05-09T11:27:59.761Z,601.00
2024-05-09T11:28:59.729Z,607.00
2024-05-09T11:29:59.731Z,609.00
2024-05-09T11:30:59.958Z,600.00
2024-05-09T11:31:59.740Z,608.00
2024-05-09T11:33:00.121Z,610.00
2024-05-09T11:33:59.765Z,614.00
2024-05-09T11:34:59.763Z,613.00
2024-05-09T11:35:59.730Z,611.00
2024-05-09T11:36:59.784Z,610.00
2024-05-09T11:37:59.750Z,603.00
2024-05-09T11:38:59.792Z,602.00
2024-05-09T11:39:59.890Z,603.00
2024-05-09T11:40:59.887Z,603.00
2024-05-09T11:41:59.957Z,603.00
2024-05-09T11:43:00.046Z,603.00
2024-05-09T11:44:00.037Z,603.00
2024-05-09T11:45:00.120Z,604.00
2024-05-09T11:46:00.218Z,605.00
2024-05-09T11:47:00.188Z,604.00
2024-05-09T11:48:00.436Z,602.00
2024-05-09T11:49:00.526Z,605.00
2024-05-09T11:50:00.496Z,602.00
2024-05-09T11:51:00.396Z,602.00
2024-05-09T11:52:00.672Z,602.00
2024-05-09T11:53:00.477Z,602.00
2024-05-09T11:54:00.556Z,602.00
2024-05-09T11:55:00.637Z,604.00
2024-05-09T11:56:00.634Z,611.00
2024-05-09T11:57:00.667Z,605.00
2024-05-09T11:58:00.744Z,608.00
2024-05-09T11:59:00.807Z,606.00
2024-05-09T12:00:00.839Z,603.00
2024-05-09T12:01:00.941Z,602.00
2024-05-09T12:02:01.002Z,608.00
2024-05-09T12:03:01.002Z,606.00
2024-05-09T12:04:01.387Z,601.00
2024-05-09T12:05:01.136Z,605.00
2024-05-09T12:06:01.311Z,605.00
2024-05-09T12:07:01.192Z,607.00
2024-05-09T12:08:01.196Z,605.00
2024-05-09T12:09:01.269Z,604.00
2024-05-09T12:10:01.382Z,601.00
2024-05-09T12:11:01.604Z,607.00
2024-05-09T12:12:01.412Z,607.00
2024-05-09T12:13:01.533Z,609.00
2024-05-09T12:14:01.506Z,608.00
2024-05-09T12:15:01.556Z,610.00
2024-05-09T12:16:01.716Z,606.00
2024-05-09T12:17:01.680Z,605.00
2024-05-09T12:18:03.831Z,607.00
2024-05-09T12:19:01.927Z,609.00
2024-05-09T12:20:01.713Z,605.00
2024-05-09T12:21:01.730Z,610.00
2024-05-09T12:22:01.754Z,614.00
2024-05-09T12:23:01.695Z,617.00
2024-05-09T12:24:01.708Z,620.00
2024-05-09T12:25:01.723Z,621.00
2024-05-09T12:26:01.780Z,617.00
2024-05-09T12:27:01.719Z,619.00
2024-05-09T12:28:01.868Z,619.00
2024-05-09T12:29:01.728Z,616.00
2024-05-09T12:30:01.691Z,617.00
2024-05-09T12:31:01.730Z,618.00
2024-05-09T12:32:01.762Z,618.00
2024-05-09T12:33:01.812Z,619.00